| time (UTC) | temp F | wind direction | speed knots | gust knots | rain 1hr in | rain 24hr in | rain mn in | humidity % | barometer mb |
| 20260507100100 | 60 | 185 | 1.7 | 5.2 | 0.00 | 0.00 | 0.00 | 35 | 1011.3 |
| 20260507093109 | 59 | 230 | 1.7 | 6.1 | 0.00 | 0.00 | 0.00 | 35 | 1011.3 |
| 20260507090100 | 58 | 156 | 1.7 | 6.1 | 0.00 | 0.00 | 0.00 | 35 | 1011.3 |
| 20260507083112 | 58 | 172 | 1.7 | 4.3 | 0.00 | 0.00 | 0.00 | 35 | 1011.1 |
| 20260507080040 | 61 | 171 | 1.7 | 5.2 | 0.00 | 0.00 | 0.00 | 32 | 1011.0 |
| 20260507073111 | 69 | 151 | 1.7 | 4.3 | 0.00 | 0.00 | 0.00 | 29 | 1011.0 |
| 20260507070021 | 66 | 180 | 1.7 | 4.3 | 0.00 | 0.00 | 0.00 | 34 | 1010.9 |
| 20260507063111 | 55 | 180 | 0.9 | 2.6 | 0.00 | 0.01 | 0.00 | 55 | 1010.9 |
| 20260507060123 | 42 | 193 | 0.9 | 3.5 | 0.00 | 0.01 | 0.00 | 76 | 1010.8 |
| 20260507053052 | 38 | 162 | 0.9 | 2.6 | 0.00 | 0.01 | 0.00 | 84 | 1010.8 |
| 20260507050042 | 33 | 135 | 0.9 | 2.6 | 0.00 | 0.01 | 0.00 | 85 | 1010.7 |
| 20260507043032 | 31 | 135 | 0.9 | 1.7 | 0.00 | 0.01 | 0.00 | 84 | 1010.4 |
| 20260507040022 | 30 | 135 | 0.9 | 1.7 | 0.00 | 0.01 | 0.00 | 82 | 1010.3 |
| 20260507033113 | 29 | 135 | 0.0 | 1.7 | 0.00 | 0.01 | 0.00 | 81 | 1010.2 |
| 20260507030104 | 29 | 135 | 0.9 | 1.7 | 0.00 | 0.01 | 0.00 | 80 | 1010.3 |
| 20260507023055 | 29 | 135 | 0.0 | 2.6 | 0.00 | 0.01 | 0.00 | 80 | 1010.1 |
| 20260507020046 | 29 | 135 | 0.9 | 2.6 | 0.00 | 0.01 | 0.00 | 79 | 1010.1 |
| 20260507013039 | 30 | 135 | 0.9 | 1.7 | 0.00 | 0.01 | 0.00 | 77 | 1010.1 |
| 20260507010028 | 30 | 135 | 0.9 | 1.7 | 0.00 | 0.01 | 0.00 | 74 | 1010.1 |
| 20260507003037 | 32 | 135 | 0.9 | 1.7 | 0.00 | 0.01 | 0.00 | 73 | 1010.1 |
| 20260507000109 | 32 | 135 | 0.9 | 2.6 | 0.00 | 0.01 | 0.00 | 72 | 1010.1 |
| 20260506233058 | 33 | 135 | 0.0 | 1.7 | 0.00 | 0.01 | 0.00 | 70 | 1009.9 |
| 20260506230050 | 35 | 135 | 0.0 | 1.7 | 0.00 | 0.01 | 0.00 | 68 | 1009.8 |
| 20260506223038 | 36 | 135 | 0.9 | 1.7 | 0.00 | 0.01 | 0.00 | 65 | 1009.8 |
| 20260506220029 | 37 | 135 | 0.9 | 1.7 | 0.00 | 0.01 | 0.00 | 62 | 1009.7 |
| 20260506213021 | 38 | 135 | 0.9 | 2.6 | 0.00 | 0.01 | 0.01 | 60 | 1009.7 |
| 20260506210110 | 39 | 135 | 0.9 | 2.6 | 0.00 | 0.01 | 0.01 | 56 | 1009.6 |
| 20260506203144 | 40 | 135 | 0.9 | 1.7 | 0.00 | 0.01 | 0.01 | 52 | 1009.5 |
| 20260506200111 | 42 | 135 | 0.9 | 2.6 | 0.00 | 0.01 | 0.01 | 50 | 1009.4 |
| 20260506193044 | 44 | 157 | 0.0 | 2.6 | 0.00 | 0.01 | 0.01 | 48 | 1009.2 |
| 20260506190052 | 47 | 180 | 0.0 | 1.7 | 0.00 | 0.01 | 0.01 | 38 | 1009.1 |
| 20260506183022 | 49 | 180 | 0.9 | 5.2 | 0.00 | 0.01 | 0.01 | 34 | 1008.9 |
| 20260506180112 | 51 | 201 | 0.9 | 7.0 | 0.00 | 0.01 | 0.01 | 32 | 1008.8 |
| 20260506173104 | 53 | 181 | 1.7 | 7.0 | 0.00 | 0.01 | 0.01 | 31 | 1008.8 |
| 20260506170053 | 55 | 194 | 2.6 | 7.8 | 0.00 | 0.01 | 0.01 | 30 | 1008.8 |
| 20260506163124 | 56 | 181 | 3.5 | 9.6 | 0.00 | 0.01 | 0.01 | 29 | 1008.7 |
| 20260506160034 | 57 | 189 | 3.5 | 10.4 | 0.00 | 0.01 | 0.01 | 28 | 1008.6 |
| 20260506153024 | 58 | 188 | 3.5 | 8.7 | 0.00 | 0.01 | 0.01 | 27 | 1008.5 |
| 20260506150114 | 58 | 176 | 3.5 | 7.8 | 0.00 | 0.01 | 0.01 | 27 | 1008.6 |
| 20260506143104 | 58 | 195 | 3.5 | 8.7 | 0.00 | 0.01 | 0.01 | 27 | 1008.6 |
| 20260506140136 | 58 | 193 | 2.6 | 8.7 | 0.00 | 0.01 | 0.01 | 28 | 1008.5 |
| 20260506133046 | 58 | 112 | 3.5 | 11.3 | 0.00 | 0.01 | 0.01 | 28 | 1008.5 |
| 20260506130036 | 58 | 183 | 3.5 | 8.7 | 0.00 | 0.01 | 0.01 | 29 | 1008.5 |
| 20260506123048 | 58 | 161 | 3.5 | 13.0 | 0.00 | 0.01 | 0.01 | 28 | 1008.7 |
| 20260506120040 | 59 | 178 | 3.5 | 11.3 | 0.00 | 0.01 | 0.01 | 29 | 1008.8 |
| 20260506113109 | 58 | 227 | 1.7 | 5.2 | 0.00 | 0.01 | 0.01 | 28 | 1008.8 |
| 20260506110059 | 58 | 256 | 2.6 | 7.8 | 0.00 | 0.01 | 0.01 | 27 | 1009.0 |
| 20260506103050 | 58 | 190 | 1.7 | 5.2 | 0.00 | 0.01 | 0.01 | 29 | 1009.3 |